Time;durP1;ratioP1;P1;durP2;ratioP2;P2;SDS_P1;SDS_P2;PMS_P1;PMS_P2;Temp;Humidity;BMP_temperature;BMP_pressure;BME280_temperature;BME280_humidity;BME280_pressure;Samples;Min_cycle;Max_cycle;Signal;HPM_P1;HPM_P2
2021/10/31 00:00:31;;;;;;;10.03;6.73;;;22.20;54.60;;;;;;5195960;28;20045;-70
2021/10/31 00:03:04;;;;;;;10.60;7.13;;;22.30;54.70;;;;;;5200909;28;20497;-70
2021/10/31 00:05:36;;;;;;;10.55;7.10;;;22.20;54.70;;;;;;5201206;28;20073;-70
2021/10/31 00:08:09;;;;;;;10.85;7.07;;;22.20;54.60;;;;;;5200341;28;20048;-71
2021/10/31 00:10:41;;;;;;;9.25;7.20;;;22.30;54.60;;;;;;5201163;28;20496;-69
2021/10/31 00:13:14;;;;;;;12.57;7.60;;;22.20;54.50;;;;;;5201625;28;20049;-71
2021/10/31 00:15:46;;;;;;;10.55;7.05;;;22.20;54.60;;;;;;5201126;28;20045;-71
2021/10/31 00:18:18;;;;;;;10.70;7.30;;;22.30;54.50;;;;;;5197355;28;20041;-70
2021/10/31 00:20:51;;;;;;;11.05;7.75;;;22.20;54.40;;;;;;5202724;28;20049;-70
2021/10/31 00:23:24;;;;;;;10.88;6.88;;;22.20;54.40;;;;;;5197113;28;20060;-70
2021/10/31 00:25:57;;;;;;;11.45;7.65;;;22.20;54.40;;;;;;5198247;28;20049;-71
2021/10/31 00:28:29;;;;;;;11.13;7.22;;;22.20;54.40;;;;;;5194127;28;20052;-71
2021/10/31 00:31:03;;;;;;;10.60;7.20;;;22.20;54.40;;;;;;5199621;28;20060;-71
2021/10/31 00:33:37;;;;;;;8.98;7.10;;;22.20;54.30;;;;;;5201426;28;20045;-71
2021/10/31 00:36:10;;;;;;;9.45;7.60;;;22.20;54.20;;;;;;5204472;28;20045;-70
2021/10/31 00:38:42;;;;;;;10.98;7.38;;;22.20;54.10;;;;;;5201012;28;20045;-71
2021/10/31 00:41:15;;;;;;;9.52;7.43;;;22.20;54.10;;;;;;5201955;28;20048;-71
2021/10/31 00:43:47;;;;;;;12.57;7.75;;;22.20;54.20;;;;;;5191067;28;20072;-70
2021/10/31 00:46:19;;;;;;;9.43;7.50;;;22.20;54.80;;;;;;5201634;28;20819;-70
2021/10/31 00:48:52;;;;;;;11.57;7.85;;;22.20;54.20;;;;;;5167157;28;20053;-71
2021/10/31 00:51:28;;;;;;;9.48;7.53;;;22.20;54.00;;;;;;5202221;28;20036;-70
2021/10/31 00:54:02;;;;;;;9.80;7.30;;;22.20;54.10;;;;;;5195542;28;20049;-70
2021/10/31 00:56:35;;;;;;;8.82;7.10;;;22.20;54.10;;;;;;5199974;28;20033;-70
2021/10/31 00:59:07;;;;;;;13.05;8.27;;;22.20;54.10;;;;;;5198230;28;20048;-70
2021/10/31 01:01:40;;;;;;;10.97;7.17;;;22.20;54.10;;;;;;5200393;28;20421;-70
2021/10/31 01:04:19;;;;;;;13.13;7.68;;;22.20;54.10;;;;;;5194184;28;20049;-70
2021/10/31 01:06:58;;;;;;;10.27;7.47;;;22.20;54.10;;;;;;5196514;28;20053;-70
2021/10/31 01:10:12;;;;;;;10.38;7.88;;;22.10;53.90;;;;;;5202136;28;20053;-70
2021/10/31 01:12:56;;;;;;;9.85;8.02;;;22.10;53.90;;;;;;5202472;28;20049;-70
2021/10/31 01:15:52;;;;;;;10.20;7.65;;;22.20;53.90;;;;;;5198763;28;20045;-71
2021/10/31 01:18:41;;;;;;;9.15;7.68;;;22.10;53.90;;;;;;5199700;28;20041;-70
2021/10/31 01:21:26;;;;;;;10.82;7.90;;;22.10;53.90;;;;;;5198221;28;20501;-70
2021/10/31 01:24:21;;;;;;;10.85;7.82;;;22.10;53.80;;;;;;5192901;28;20045;-70
2021/10/31 01:27:05;;;;;;;9.63;7.57;;;22.10;53.80;;;;;;5200821;28;20040;-70
2021/10/31 01:29:56;;;;;;;13.55;7.80;;;22.10;53.80;;;;;;5204399;28;20052;-70
2021/10/31 01:32:36;;;;;;;10.38;7.50;;;22.10;53.80;;;;;;5197459;28;20046;-71
2021/10/31 01:35:28;;;;;;;10.32;7.72;;;22.10;53.70;;;;;;5196811;28;20049;-71
2021/10/31 01:38:24;;;;;;;10.30;8.02;;;22.10;53.60;;;;;;5194356;28;20068;-71
2021/10/31 01:41:24;;;;;;;12.50;8.02;;;22.10;53.60;;;;;;5195756;28;20041;-71
2021/10/31 01:44:02;;;;;;;8.60;7.45;;;22.10;53.60;;;;;;5198782;28;20052;-71
2021/10/31 01:46:50;;;;;;;9.98;6.85;;;22.10;53.60;;;;;;5195684;28;20053;-71
2021/10/31 01:49:50;;;;;;;14.90;8.60;;;22.10;53.60;;;;;;5195762;28;20053;-70
2021/10/31 01:52:35;;;;;;;10.18;7.38;;;22.10;53.60;;;;;;5194630;28;20041;-71
2021/10/31 01:55:21;;;;;;;11.75;7.50;;;22.00;53.60;;;;;;5194552;28;20045;-71
2021/10/31 01:57:56;;;;;;;12.98;7.93;;;22.10;53.70;;;;;;5199310;28;20497;-71
2021/10/31 02:00:30;;;;;;;13.00;8.32;;;22.10;53.70;;;;;;5199445;28;20047;-71
2021/10/31 02:03:04;;;;;;;11.75;7.50;;;22.10;53.70;;;;;;5201631;28;20041;-71
2021/10/31 02:05:39;;;;;;;11.60;8.30;;;22.10;53.70;;;;;;5200553;28;20045;-71
2021/10/31 02:08:13;;;;;;;8.20;6.85;;;22.10;53.70;;;;;;5196591;28;20090;-71
2021/10/31 02:10:48;;;;;;;10.50;7.90;;;22.10;53.60;;;;;;5194975;28;20753;-71
2021/10/31 02:13:24;;;;;;;11.20;7.65;;;22.00;53.40;;;;;;5196845;28;20417;-70
2021/10/31 02:15:58;;;;;;;10.30;7.80;;;22.10;53.50;;;;;;5195675;28;20052;-70
2021/10/31 02:18:32;;;;;;;;;;;22.00;53.50;;;;;;5194548;28;20045;-71
2021/10/31 02:21:06;;;;;;;10.00;7.78;;;22.00;53.50;;;;;;5198141;28;20328;-71
2021/10/31 02:23:38;;;;;;;10.98;7.60;;;22.00;53.50;;;;;;5183117;28;20052;-70
2021/10/31 02:26:13;;;;;;;10.48;7.60;;;22.00;53.40;;;;;;5157676;28;20056;-71
2021/10/31 02:29:00;;;;;;;10.32;7.78;;;22.00;53.40;;;;;;5158292;28;20045;-71
2021/10/31 02:31:32;;;;;;;11.18;8.00;;;22.00;53.30;;;;;;5174448;28;20049;-71
2021/10/31 02:34:07;;;;;;;18.75;8.25;;;22.00;53.90;;;;;;5197121;28;20052;-71
2021/10/31 02:36:40;;;;;;;9.75;7.45;;;22.00;53.20;;;;;;5195544;28;20041;-71
2021/10/31 02:39:12;;;;;;;10.10;7.32;;;22.00;53.20;;;;;;5198339;28;20041;-71
2021/10/31 02:41:45;;;;;;;11.73;7.78;;;22.00;53.20;;;;;;5190700;28;20048;-71
2021/10/31 02:44:17;;;;;;;10.43;7.07;;;22.00;53.20;;;;;;5199539;28;20413;-71
2021/10/31 02:46:50;;;;;;;10.65;7.40;;;22.00;53.10;;;;;;5198505;28;20275;-71
2021/10/31 02:49:23;;;;;;;9.98;7.13;;;22.00;53.10;;;;;;5198147;28;20695;-71
2021/10/31 02:52:01;;;;;;;9.10;6.90;;;22.00;53.00;;;;;;5198128;28;20034;-71
2021/10/31 02:54:55;;;;;;;8.52;6.72;;;22.00;53.10;;;;;;5198189;28;20474;-71
2021/10/31 02:57:49;;;;;;;11.43;7.47;;;22.00;53.00;;;;;;5193242;28;20044;-71
2021/10/31 03:00:24;;;;;;;8.77;6.80;;;22.00;53.00;;;;;;5194374;28;20621;-71
2021/10/31 03:02:58;;;;;;;9.65;7.25;;;22.00;53.00;;;;;;5202970;28;20559;-70
2021/10/31 03:05:31;;;;;;;9.40;7.30;;;22.00;52.90;;;;;;5195207;28;20064;-71
2021/10/31 03:08:04;;;;;;;10.25;7.18;;;22.00;52.90;;;;;;5195859;28;20056;-71
2021/10/31 03:10:36;;;;;;;9.57;7.00;;;22.00;52.90;;;;;;5196612;28;20052;-71
2021/10/31 03:13:09;;;;;;;10.85;7.40;;;22.00;52.90;;;;;;5193740;28;20050;-71
2021/10/31 03:15:41;;;;;;;9.43;7.07;;;22.00;52.80;;;;;;5195754;28;20064;-69
2021/10/31 03:18:13;;;;;;;8.73;6.60;;;22.00;52.80;;;;;;5196604;28;20041;-71
2021/10/31 03:20:46;;;;;;;13.60;7.10;;;22.00;52.80;;;;;;5198793;28;20048;-70
2021/10/31 03:23:19;;;;;;;16.38;7.20;;;22.00;52.80;;;;;;5191034;28;20049;-70
2021/10/31 03:25:53;;;;;;;12.35;7.30;;;22.00;52.70;;;;;;5188267;28;20053;-69
2021/10/31 03:28:25;;;;;;;10.43;6.90;;;22.00;52.70;;;;;;5194884;28;20056;-70
2021/10/31 03:30:58;;;;;;;11.40;7.15;;;22.00;52.80;;;;;;5192116;28;20056;-69
2021/10/31 03:33:30;;;;;;;16.00;7.97;;;22.00;52.90;;;;;;5195169;28;20305;-69
2021/10/31 03:36:03;;;;;;;13.35;7.53;;;22.00;53.10;;;;;;5195382;28;20296;-70
2021/10/31 03:38:35;;;;;;;10.32;6.82;;;22.00;53.20;;;;;;5196813;28;20413;-70
2021/10/31 03:41:08;;;;;;;14.13;7.63;;;22.10;53.30;;;;;;5196397;28;20055;-69
2021/10/31 03:43:40;;;;;;;13.73;6.88;;;22.10;53.30;;;;;;5182530;28;20097;-70
2021/10/31 03:46:12;;;;;;;14.52;7.03;;;22.10;53.40;;;;;;5192274;28;20041;-70
2021/10/31 03:48:45;;;;;;;14.60;6.82;;;22.10;53.40;;;;;;5201790;28;20413;-70
2021/10/31 03:51:17;;;;;;;10.63;6.65;;;22.10;53.50;;;;;;5202435;28;20041;-70
2021/10/31 03:53:49;;;;;;;14.30;6.78;;;22.10;53.50;;;;;;5200843;28;20501;-70
2021/10/31 03:56:22;;;;;;;9.95;6.43;;;22.10;53.60;;;;;;5197614;28;20052;-70
2021/10/31 03:58:54;;;;;;;11.35;6.25;;;22.10;53.70;;;;;;5198916;28;20041;-69
2021/10/31 04:01:28;;;;;;;10.05;6.40;;;22.10;53.80;;;;;;5199863;28;20037;-69
2021/10/31 04:04:02;;;;;;;10.18;6.93;;;22.10;53.80;;;;;;5200813;28;20045;-70
2021/10/31 04:06:34;;;;;;;12.60;6.65;;;22.10;53.90;;;;;;5196954;28;20405;-69
2021/10/31 04:09:06;;;;;;;12.88;6.80;;;22.10;53.90;;;;;;5200375;28;20049;-70
2021/10/31 04:11:39;;;;;;;9.75;6.97;;;22.10;54.60;;;;;;5198589;28;20639;-70
2021/10/31 04:14:11;;;;;;;8.77;6.30;;;22.10;54.00;;;;;;5195660;28;20056;-70
2021/10/31 04:16:44;;;;;;;13.60;6.10;;;22.10;54.00;;;;;;5200021;28;20049;-69
2021/10/31 04:19:16;;;;;;;12.38;6.22;;;22.10;54.00;;;;;;5200230;28;20052;-70
2021/10/31 04:21:49;;;;;;;13.50;6.22;;;22.10;54.10;;;;;;5202186;28;20061;-70
2021/10/31 04:24:22;;;;;;;12.13;7.45;;;22.10;54.20;;;;;;5200997;28;20068;-70
2021/10/31 04:26:57;;;;;;;19.05;6.95;;;22.10;54.20;;;;;;5185248;28;20479;-70
2021/10/31 04:29:29;;;;;;;11.50;6.82;;;22.10;54.30;;;;;;5201251;28;20053;-69
2021/10/31 04:32:02;;;;;;;9.13;5.57;;;22.10;54.30;;;;;;5198401;28;20513;-69
2021/10/31 04:34:35;;;;;;;11.90;6.20;;;22.10;54.30;;;;;;5199732;28;20053;-71
2021/10/31 04:37:07;;;;;;;11.55;6.57;;;22.10;54.40;;;;;;5201366;28;20041;-70
2021/10/31 04:39:41;;;;;;;7.88;5.57;;;22.10;54.40;;;;;;5203756;28;20047;-71
2021/10/31 04:42:14;;;;;;;18.45;6.60;;;22.10;54.50;;;;;;5201774;28;20536;-70
2021/10/31 04:44:47;;;;;;;14.55;6.82;;;22.10;54.70;;;;;;5198097;28;20060;-70
2021/10/31 04:47:19;;;;;;;11.02;6.18;;;22.10;54.70;;;;;;5207864;28;20045;-71
2021/10/31 04:49:51;;;;;;;10.02;6.07;;;22.10;54.80;;;;;;5202186;28;20060;-71
2021/10/31 04:52:24;;;;;;;10.30;5.88;;;22.10;54.80;;;;;;5204953;28;20068;-71
2021/10/31 04:54:56;;;;;;;13.45;5.88;;;22.20;54.90;;;;;;5206142;28;20515;-70
2021/10/31 04:57:29;;;;;;;10.45;6.75;;;22.10;54.80;;;;;;5181883;28;20055;-71
2021/10/31 05:00:03;;;;;;;15.20;6.78;;;22.10;54.90;;;;;;5200691;28;20041;-70
2021/10/31 05:02:35;;;;;;;10.95;6.15;;;22.10;55.00;;;;;;5199455;28;20933;-71
2021/10/31 05:05:08;;;;;;;19.90;6.28;;;22.20;55.00;;;;;;5200539;28;20865;-71
2021/10/31 05:07:41;;;;;;;14.47;7.00;;;22.10;55.00;;;;;;5203099;28;20056;-71
2021/10/31 05:10:13;;;;;;;13.65;6.47;;;22.10;55.00;;;;;;5204971;28;20045;-70
2021/10/31 05:12:46;;;;;;;12.15;5.90;;;22.10;55.10;;;;;;5202060;28;20052;-71
2021/10/31 05:15:19;;;;;;;10.57;5.95;;;22.10;55.10;;;;;;5200419;28;20052;-71
2021/10/31 05:17:53;;;;;;;14.93;6.45;;;22.10;55.10;;;;;;5199710;28;20529;-71
2021/10/31 05:20:26;;;;;;;9.77;5.80;;;22.10;55.10;;;;;;5200392;28;20044;-70
2021/10/31 05:22:58;;;;;;;10.07;5.65;;;22.10;55.10;;;;;;5202857;28;20368;-71
2021/10/31 05:25:30;;;;;;;12.40;5.53;;;22.10;55.20;;;;;;5198680;28;20049;-70
2021/10/31 05:28:03;;;;;;;14.88;5.93;;;22.10;55.20;;;;;;5205327;28;20493;-70
2021/10/31 05:30:35;;;;;;;8.63;6.10;;;22.10;55.20;;;;;;5208411;28;20412;-70
2021/10/31 05:33:08;;;;;;;12.65;5.60;;;22.10;55.20;;;;;;5203671;28;20440;-70
2021/10/31 05:35:40;;;;;;;14.25;5.82;;;22.10;55.20;;;;;;5200904;28;20045;-70
2021/10/31 05:38:17;;;;;;;8.07;4.93;;;22.20;55.30;;;;;;5201934;28;21061;-70
2021/10/31 05:40:50;;;;;;;9.63;5.60;;;22.20;55.20;;;;;;5203180;28;20049;-69
2021/10/31 05:43:23;;;;;;;11.35;6.10;;;22.20;55.20;;;;;;5197347;28;20044;-71
2021/10/31 05:45:56;;;;;;;10.65;5.70;;;22.20;55.10;;;;;;5199118;28;20037;-71
2021/10/31 05:48:30;;;;;;;8.95;5.35;;;22.20;55.10;;;;;;5199036;28;20056;-70
2021/10/31 05:51:02;;;;;;;11.65;4.93;;;22.30;55.20;;;;;;5203995;28;20072;-71
2021/10/31 05:53:35;;;;;;;10.77;5.65;;;22.20;55.10;;;;;;5202606;28;20049;-71
2021/10/31 05:56:09;;;;;;;10.35;5.30;;;22.30;55.10;;;;;;5202019;28;20061;-71
2021/10/31 05:58:41;;;;;;;10.48;5.72;;;22.30;55.20;;;;;;5199404;28;20628;-70
2021/10/31 06:01:14;;;;;;;10.63;6.20;;;22.30;55.10;;;;;;5196570;28;20133;-70
2021/10/31 06:03:46;;;;;;;10.05;5.50;;;22.30;55.10;;;;;;5194275;28;20053;-71
2021/10/31 06:06:22;;;;;;;9.85;5.57;;;22.30;55.10;;;;;;5199397;28;20040;-70
2021/10/31 06:08:55;;;;;;;9.90;4.93;;;22.30;55.10;;;;;;5197093;28;20045;-70
2021/10/31 06:11:33;;;;;;;13.18;6.32;;;22.40;55.10;;;;;;5196344;28;20044;-71
2021/10/31 06:14:05;;;;;;;14.68;6.53;;;22.40;55.20;;;;;;5197278;28;20121;-70
2021/10/31 06:16:38;;;;;;;7.65;5.13;;;22.40;55.20;;;;;;5197833;28;20041;-71
2021/10/31 06:19:10;;;;;;;7.75;4.68;;;22.40;55.20;;;;;;5193676;28;20052;-70
2021/10/31 06:21:43;;;;;;;8.98;4.95;;;22.40;55.20;;;;;;5195955;28;20628;-71
2021/10/31 06:24:15;;;;;;;12.25;5.70;;;22.40;55.20;;;;;;5195155;28;20060;-70
2021/10/31 06:26:47;;;;;;;15.93;5.90;;;22.40;55.30;;;;;;5198878;28;20065;-70
2021/10/31 06:29:20;;;;;;;10.00;5.63;;;22.40;55.30;;;;;;5193603;28;20064;-71
2021/10/31 06:31:52;;;;;;;11.20;5.30;;;22.40;55.30;;;;;;5189324;28;20061;-71
2021/10/31 06:34:25;;;;;;;10.47;5.30;;;22.50;55.30;;;;;;5191875;28;20044;-71
2021/10/31 06:36:57;;;;;;;13.18;5.32;;;22.50;55.30;;;;;;5191102;28;20040;-70
2021/10/31 06:39:30;;;;;;;14.70;6.13;;;22.50;55.30;;;;;;5195372;28;20041;-69
2021/10/31 06:42:02;;;;;;;13.85;5.28;;;22.50;55.30;;;;;;5195151;28;20052;-70
2021/10/31 06:44:35;;;;;;;10.63;4.75;;;22.50;55.30;;;;;;5193414;28;20056;-71
2021/10/31 06:47:07;;;;;;;11.00;5.13;;;22.50;55.40;;;;;;5192994;28;20604;-71
2021/10/31 06:49:41;;;;;;;13.48;5.60;;;22.50;55.40;;;;;;5181406;28;20041;-71
2021/10/31 06:52:14;;;;;;;15.50;5.78;;;22.50;55.30;;;;;;5186585;28;20045;-71
2021/10/31 06:54:46;;;;;;;10.48;5.10;;;22.50;54.80;;;;;;5200996;28;20406;-71
2021/10/31 06:57:19;;;;;;;7.70;4.60;;;22.50;54.40;;;;;;5194356;28;20051;-71
2021/10/31 06:59:51;;;;;;;13.67;4.97;;;22.50;54.20;;;;;;5198059;28;20417;-70
2021/10/31 07:02:23;;;;;;;12.88;4.53;;;22.50;53.90;;;;;;5192231;28;20045;-70
2021/10/31 07:04:56;;;;;;;8.95;4.30;;;22.50;53.60;;;;;;5200377;28;20045;-70
2021/10/31 07:07:28;;;;;;;5.88;4.05;;;22.50;53.40;;;;;;5196915;28;20064;-70
2021/10/31 07:10:01;;;;;;;8.45;4.03;;;22.50;53.30;;;;;;5197022;28;20053;-71
2021/10/31 07:12:33;;;;;;;5.35;4.35;;;22.50;53.20;;;;;;5199182;28;20402;-70
2021/10/31 07:15:06;;;;;;;5.00;4.00;;;22.50;53.20;;;;;;5192982;28;20674;-71
2021/10/31 07:17:39;;;;;;;6.22;3.90;;;22.40;53.00;;;;;;5188747;28;20041;-71
2021/10/31 07:20:13;;;;;;;8.73;3.80;;;22.40;52.80;;;;;;5186747;28;20052;-71
2021/10/31 07:22:45;;;;;;;6.68;3.92;;;22.40;52.80;;;;;;5186590;28;20050;-71
2021/10/31 07:25:19;;;;;;;6.00;3.60;;;22.40;52.70;;;;;;5192029;28;20045;-71
2021/10/31 07:27:52;;;;;;;5.95;3.83;;;22.40;52.60;;;;;;5188119;28;20052;-71
2021/10/31 07:30:25;;;;;;;5.03;3.60;;;22.40;52.50;;;;;;5192700;28;20512;-70
2021/10/31 07:32:59;;;;;;;6.32;4.10;;;22.40;52.50;;;;;;5178369;28;20041;-70
2021/10/31 07:35:32;;;;;;;5.50;3.78;;;22.40;52.40;;;;;;5201879;28;20061;-70
2021/10/31 07:38:05;;;;;;;5.75;4.05;;;22.40;52.40;;;;;;5203833;28;20049;-70
2021/10/31 07:40:37;;;;;;;6.57;4.17;;;22.40;52.30;;;;;;5195200;28;20049;-70
2021/10/31 07:43:10;;;;;;;4.80;3.90;;;22.40;52.30;;;;;;5200545;28;20051;-70
2021/10/31 07:45:43;;;;;;;6.30;4.80;;;22.40;52.30;;;;;;5198856;28;20485;-71
2021/10/31 07:48:15;;;;;;;4.38;3.92;;;22.40;52.30;;;;;;5202285;28;20081;-70
2021/10/31 07:50:48;;;;;;;4.18;3.78;;;22.40;52.30;;;;;;5198730;28;20060;-70
2021/10/31 07:53:20;;;;;;;6.80;4.43;;;22.40;52.30;;;;;;5201661;28;20056;-70
2021/10/31 07:55:53;;;;;;;6.47;4.93;;;22.40;52.30;;;;;;5207806;28;20046;-71
2021/10/31 07:58:28;;;;;;;7.30;4.35;;;22.40;52.30;;;;;;5185872;28;20061;-70
2021/10/31 08:01:00;;;;;;;4.38;3.97;;;22.40;52.40;;;;;;5204348;28;20045;-71
2021/10/31 08:03:33;;;;;;;5.75;4.57;;;22.40;52.40;;;;;;5199018;28;20068;-71
2021/10/31 08:06:05;;;;;;;7.20;4.90;;;22.40;52.40;;;;;;5184961;28;21074;-70
2021/10/31 08:08:38;;;;;;;7.13;4.50;;;22.40;52.50;;;;;;5188787;28;20335;-71
2021/10/31 08:11:10;;;;;;;6.53;4.35;;;22.40;52.50;;;;;;5190417;28;20326;-71
2021/10/31 08:13:44;;;;;;;7.68;4.50;;;22.50;52.60;;;;;;5195674;28;20060;-71
2021/10/31 08:16:19;;;;;;;6.28;4.93;;;22.40;52.60;;;;;;5183367;28;20052;-69
2021/10/31 08:18:52;;;;;;;6.35;4.45;;;22.50;52.70;;;;;;5185153;28;21274;-70
2021/10/31 08:21:26;;;;;;;5.07;4.28;;;22.40;52.80;;;;;;5187100;28;20041;-71
2021/10/31 08:23:59;;;;;;;4.95;4.40;;;22.40;52.70;;;;;;5192612;28;20045;-71
2021/10/31 08:26:32;;;;;;;8.45;4.60;;;22.40;52.80;;;;;;5192962;28;20306;-71
2021/10/31 08:29:04;;;;;;;4.75;4.28;;;22.40;52.80;;;;;;5200917;28;20049;-71
2021/10/31 08:31:40;;;;;;;5.60;3.88;;;22.40;52.90;;;;;;5200758;28;20041;-72
2021/10/31 08:34:13;;;;;;;4.85;4.00;;;22.40;52.90;;;;;;5199914;28;20032;-71
2021/10/31 08:36:46;;;;;;;4.45;4.03;;;22.40;52.90;;;;;;5196221;28;20066;-71
2021/10/31 08:39:18;;;;;;;5.28;4.13;;;22.40;53.00;;;;;;5202311;28;20037;-70
2021/10/31 08:41:51;;;;;;;4.43;3.95;;;22.50;53.10;;;;;;5207827;28;20045;-70
2021/10/31 08:44:24;;;;;;;5.07;3.92;;;22.50;53.20;;;;;;5204692;28;20069;-71
2021/10/31 08:46:57;;;;;;;4.95;3.97;;;22.50;53.30;;;;;;5204668;28;20053;-71
2021/10/31 08:49:29;;;;;;;6.22;4.40;;;22.50;53.30;;;;;;5202312;28;20049;-70
2021/10/31 08:52:05;;;;;;;9.27;4.07;;;22.50;53.30;;;;;;5205396;28;20052;-72
2021/10/31 08:54:38;;;;;;;10.32;4.40;;;22.50;53.40;;;;;;5200294;28;20056;-73
2021/10/31 08:57:10;;;;;;;16.83;4.05;;;22.50;53.80;;;;;;5192506;28;20042;-73
2021/10/31 08:59:43;;;;;;;10.70;4.13;;;22.50;53.70;;;;;;5193380;28;20060;-74
2021/10/31 09:02:15;;;;;;;5.68;4.00;;;22.50;53.80;;;;;;5198802;28;20049;-73
2021/10/31 09:04:47;;;;;;;5.28;3.65;;;22.50;53.90;;;;;;5196568;28;20056;-74
2021/10/31 09:07:20;;;;;;;7.97;3.80;;;22.50;54.10;;;;;;5198683;28;20049;-74
2021/10/31 09:09:52;;;;;;;5.75;3.92;;;22.50;54.20;;;;;;5195987;28;20433;-73
2021/10/31 09:12:25;;;;;;;8.30;3.67;;;22.50;54.10;;;;;;5194330;28;20593;-72
2021/10/31 09:14:58;;;;;;;13.55;4.95;;;22.50;54.80;;;;;;5195235;28;20072;-72
2021/10/31 09:17:30;;;;;;;12.40;4.20;;;22.50;54.10;;;;;;5202832;28;20048;-73
2021/10/31 09:20:04;;;;;;;13.05;3.63;;;22.50;54.00;;;;;;5208283;28;20064;-73
2021/10/31 09:22:36;;;;;;;;;;;22.50;54.00;;;;;;5204921;28;20044;-73
2021/10/31 09:25:08;;;;;;;10.57;3.08;;;22.40;53.90;;;;;;5206481;28;19932;-73
2021/10/31 09:27:41;;;;;;;9.98;3.58;;;22.40;53.70;;;;;;5206208;28;20052;-73
2021/10/31 09:30:13;;;;;;;12.85;3.05;;;22.50;53.60;;;;;;5187935;28;20052;-73
2021/10/31 09:32:49;;;;;;;9.20;4.33;;;22.40;53.50;;;;;;5200835;28;20535;-73
2021/10/31 09:35:27;;;;;;;7.07;3.10;;;22.40;53.10;;;;;;5197924;28;20080;-73
2021/10/31 09:38:05;;;;;;;5.63;3.00;;;22.40;52.80;;;;;;5205359;28;20041;-73
2021/10/31 09:40:38;;;;;;;4.25;2.80;;;22.40;52.70;;;;;;5186534;28;20049;-73
2021/10/31 09:43:10;;;;;;;12.57;3.53;;;22.40;52.60;;;;;;5207007;28;20040;-73
2021/10/31 09:45:43;;;;;;;4.90;3.20;;;22.40;52.60;;;;;;5201242;28;20482;-73
2021/10/31 09:48:18;;;;;;;7.78;3.22;;;22.40;52.60;;;;;;5204004;28;20052;-73
2021/10/31 09:50:51;;;;;;;3.92;2.58;;;22.40;52.70;;;;;;5198427;28;20441;-73
2021/10/31 09:53:26;;;;;;;4.90;2.60;;;22.40;52.80;;;;;;5199618;28;20041;-73
2021/10/31 09:55:58;;;;;;;7.93;3.05;;;22.40;52.80;;;;;;5201073;28;20520;-73
2021/10/31 09:58:37;;;;;;;6.20;2.67;;;22.40;52.90;;;;;;5206863;28;20041;-73
2021/10/31 10:01:36;;;;;;;3.53;2.72;;;22.40;52.90;;;;;;5200716;28;20045;-72
2021/10/31 10:04:10;;;;;;;5.05;2.80;;;22.40;52.90;;;;;;5205033;28;20049;-73
2021/10/31 10:06:52;;;;;;;12.75;3.10;;;22.40;53.00;;;;;;5199796;28;20075;-73
2021/10/31 10:09:30;;;;;;;3.90;2.60;;;22.40;53.00;;;;;;5198651;28;20654;-71
2021/10/31 10:12:14;;;;;;;6.45;3.05;;;22.40;53.00;;;;;;5201897;28;20049;-72
2021/10/31 10:15:05;;;;;;;5.75;2.72;;;22.40;53.00;;;;;;5206009;28;20042;-73
2021/10/31 10:17:51;;;;;;;4.53;2.97;;;22.40;53.00;;;;;;5204646;28;20045;-73
2021/10/31 10:20:23;;;;;;;6.32;3.00;;;22.40;53.10;;;;;;5201630;28;20048;-72
2021/10/31 10:23:09;;;;;;;4.20;2.83;;;22.40;53.20;;;;;;5203340;28;20783;-73
2021/10/31 10:25:42;;;;;;;7.07;3.50;;;22.50;53.30;;;;;;5206048;28;20588;-72
2021/10/31 10:28:25;;;;;;;4.40;2.80;;;22.50;53.30;;;;;;5199608;28;20838;-72
2021/10/31 10:31:23;;;;;;;6.90;2.90;;;22.50;53.30;;;;;;5198159;28;20045;-73
2021/10/31 10:33:57;;;;;;;4.03;2.90;;;22.50;53.30;;;;;;5202428;28;20045;-72
2021/10/31 10:36:34;;;;;;;;;;;22.50;53.30;;;;;;5200135;28;20156;-70
2021/10/31 10:39:12;;;;;;;2.97;2.45;;;22.50;53.40;;;;;;5198148;28;19932;-69
2021/10/31 10:41:54;;;;;;;4.72;2.65;;;22.60;53.40;;;;;;5202845;28;20040;-69
2021/10/31 10:44:35;;;;;;;3.88;2.33;;;22.70;53.40;;;;;;5202067;28;20068;-70
2021/10/31 10:47:12;;;;;;;4.95;2.72;;;22.70;53.40;;;;;;5202976;28;20416;-69
2021/10/31 10:49:45;;;;;;;5.43;2.85;;;22.80;53.40;;;;;;5198353;28;26402;-70
2021/10/31 10:52:40;;;;;;;6.45;2.60;;;22.80;53.30;;;;;;5198167;28;20048;-70
2021/10/31 10:55:15;;;;;;;5.65;2.60;;;22.90;53.20;;;;;;5204969;28;20040;-70
2021/10/31 10:57:52;;;;;;;4.03;2.65;;;23.00;53.10;;;;;;5199678;28;20045;-69
2021/10/31 11:00:28;;;;;;;9.27;2.85;;;23.00;53.10;;;;;;5188199;28;20048;-70
2021/10/31 11:03:10;;;;;;;5.30;2.90;;;23.10;53.60;;;;;;5192775;28;20041;-70
2021/10/31 11:05:48;;;;;;;7.18;2.50;;;23.20;52.80;;;;;;5191415;28;20050;-70
2021/10/31 11:08:24;;;;;;;5.22;2.45;;;23.30;52.60;;;;;;5195916;28;20418;-69
2021/10/31 11:11:02;;;;;;;6.55;2.60;;;23.40;52.50;;;;;;5199470;28;20050;-69
2021/10/31 11:13:45;;;;;;;8.20;2.65;;;23.50;52.30;;;;;;5198486;28;20053;-70
2021/10/31 11:16:20;;;;;;;7.95;2.83;;;23.60;52.20;;;;;;5195639;28;20589;-70
2021/10/31 11:18:52;;;;;;;7.03;2.80;;;23.70;52.00;;;;;;5198967;28;20049;-70
2021/10/31 11:21:24;;;;;;;3.00;2.28;;;23.70;51.80;;;;;;5199833;28;20037;-69
2021/10/31 11:23:58;;;;;;;6.50;2.67;;;23.80;51.70;;;;;;5204190;28;20497;-70
2021/10/31 11:26:35;;;;;;;;;;;23.80;51.60;;;;;;5204448;28;20045;-70
2021/10/31 11:29:08;;;;;;;4.85;2.63;;;23.80;51.50;;;;;;5202963;28;20364;-69
2021/10/31 11:31:40;;;;;;;8.25;3.05;;;23.80;51.50;;;;;;5204977;28;20054;-71
2021/10/31 11:34:12;;;;;;;7.07;2.60;;;23.80;51.40;;;;;;5208177;28;20044;-72
2021/10/31 11:36:46;;;;;;;9.38;2.40;;;23.90;51.60;;;;;;5208858;28;20053;-71
2021/10/31 11:39:19;;;;;;;4.97;2.60;;;23.90;51.70;;;;;;5202726;28;20040;-70
2021/10/31 11:41:57;;;;;;;6.80;2.92;;;24.00;51.80;;;;;;5207501;28;20425;-73
2021/10/31 11:44:30;;;;;;;6.82;2.72;;;23.90;51.80;;;;;;5200736;28;20048;-71
2021/10/31 11:47:20;;;;;;;3.42;1.98;;;23.90;51.90;;;;;;5194817;28;20048;-72
2021/10/31 11:50:08;;;;;;;5.50;2.53;;;23.90;51.50;;;;;;5200301;28;20041;-71
2021/10/31 11:52:44;;;;;;;8.32;2.83;;;23.90;51.40;;;;;;5198542;28;20041;-71
2021/10/31 11:55:26;;;;;;;3.55;2.40;;;23.90;51.40;;;;;;5203543;28;20256;-72
2021/10/31 11:58:16;;;;;;;7.13;2.65;;;23.80;51.20;;;;;;5192237;28;20049;-71
2021/10/31 12:00:54;;;;;;;;;;;23.80;51.30;;;;;;5186749;28;20045;-72
2021/10/31 12:03:32;;;;;;;3.17;2.17;;;23.70;51.30;;;;;;5207462;28;19936;-72
2021/10/31 12:06:25;;;;;;;3.28;2.10;;;23.70;51.40;;;;;;5204587;28;20060;-71
2021/10/31 12:08:59;;;;;;;5.80;2.42;;;23.70;51.30;;;;;;5194297;28;20067;-72
2021/10/31 12:11:31;;;;;;;4.78;2.38;;;23.60;51.40;;;;;;5200477;28;20045;-71
2021/10/31 12:14:08;;;;;;;5.97;2.22;;;23.60;51.40;;;;;;5203621;28;20045;-71
2021/10/31 12:16:55;;;;;;;5.55;2.22;;;23.60;51.40;;;;;;5203912;28;20041;-72
2021/10/31 12:19:49;;;;;;;5.53;2.50;;;23.60;51.40;;;;;;5197446;28;20048;-71
2021/10/31 12:22:30;;;;;;;6.05;2.53;;;23.60;51.30;;;;;;5203694;28;20045;-71
2021/10/31 12:25:04;;;;;;;4.78;2.63;;;23.50;51.90;;;;;;5201227;28;20051;-71
2021/10/31 12:27:47;;;;;;;9.20;2.40;;;23.50;51.20;;;;;;5200463;28;20040;-71
2021/10/31 12:30:28;;;;;;;4.68;2.10;;;23.50;51.10;;;;;;5201394;28;20033;-72
2021/10/31 12:33:06;;;;;;;2.95;2.35;;;23.50;51.00;;;;;;5204340;28;20056;-72
2021/10/31 12:35:41;;;;;;;4.20;2.30;;;23.50;51.00;;;;;;5202641;28;20052;-71
2021/10/31 12:38:16;;;;;;;3.58;2.28;;;23.50;51.00;;;;;;5197977;28;20037;-72
2021/10/31 12:41:17;;;;;;;3.58;2.25;;;23.50;50.90;;;;;;5181552;28;20044;-71
2021/10/31 12:43:56;;;;;;;3.30;2.40;;;23.50;50.80;;;;;;5201864;28;20049;-71
2021/10/31 12:46:31;;;;;;;4.40;2.60;;;23.50;50.70;;;;;;5201324;28;20060;-71
2021/10/31 12:49:06;;;;;;;3.80;2.25;;;23.50;50.80;;;;;;5181447;28;20659;-71
2021/10/31 12:51:58;;;;;;;5.80;2.38;;;23.50;50.80;;;;;;5201752;28;20405;-71
2021/10/31 12:54:36;;;;;;;4.63;2.83;;;23.50;50.70;;;;;;5201752;28;20068;-71
2021/10/31 12:57:10;;;;;;;4.90;2.40;;;23.50;50.70;;;;;;5188111;28;20041;-71
2021/10/31 12:59:45;;;;;;;11.02;2.45;;;23.50;50.60;;;;;;5193132;28;20059;-69
2021/10/31 13:02:22;;;;;;;16.15;3.17;;;23.50;50.60;;;;;;5187357;28;20037;-72
2021/10/31 13:05:00;;;;;;;9.68;2.70;;;23.60;50.80;;;;;;5150913;28;20509;-72
2021/10/31 13:07:54;;;;;;;8.02;2.97;;;23.60;51.00;;;;;;5173930;28;20056;-73
2021/10/31 13:10:44;;;;;;;4.90;2.22;;;23.80;50.90;;;;;;5172319;28;20048;-75
2021/10/31 13:13:22;;;;;;;13.40;3.17;;;24.00;50.70;;;;;;5175847;28;20133;-72
2021/10/31 13:15:59;;;;;;;6.95;3.00;;;24.50;50.30;;;;;;5174441;28;20029;-74
2021/10/31 13:18:34;;;;;;;11.73;3.20;;;25.30;50.10;;;;;;5172188;28;20535;-75
2021/10/31 13:21:09;;;;;;;10.07;3.13;;;26.40;47.80;;;;;;5166861;28;20049;-74
2021/10/31 13:23:44;;;;;;;5.07;3.35;;;27.60;45.90;;;;;;5171472;28;20044;-75
2021/10/31 13:26:17;;;;;;;3.75;2.90;;;28.40;44.30;;;;;;5176540;28;21088;-73